Time;durP1;ratioP1;P1;durP2;ratioP2;P2;SDS_P1;SDS_P2;PMS_P1;PMS_P2;Temp;Humidity;BMP_temperature;BMP_pressure;BME280_temperature;BME280_humidity;BME280_pressure;Samples;Min_cycle;Max_cycle;Signal;HPM_P1;HPM_P2
2021/12/27 00:00:47;;;;;;;;;;;;;;;2.95;74.68;98611.81;5050839;28;19924;-60
2021/12/27 00:03:14;;;;;;;;;;;;;;;2.97;74.62;98629.94;5051139;28;19921;-60
2021/12/27 00:05:41;;;;;;;;;;;;;;;2.96;74.72;98618.69;5051366;28;19928;-61
2021/12/27 00:08:07;;;;;;;;;;;;;;;2.99;74.11;98618.56;5051358;28;19928;-60
2021/12/27 00:10:34;;;;;;;;;;;;;;;3.00;74.70;98617.66;5051097;28;19921;-60
2021/12/27 00:13:02;;;;;;;;;;;;;;;3.03;74.24;98618.44;5050963;28;19993;-62
2021/12/27 00:15:28;;;;;;;;;;;;;;;3.05;74.06;98617.47;5051133;28;19921;-60
2021/12/27 00:17:55;;;;;;;;;;;;;;;3.08;74.55;98622.53;5050962;28;19924;-60
2021/12/27 00:20:22;;;;;;;;;;;;;;;3.09;74.70;98621.63;5050783;28;19924;-60
2021/12/27 00:22:49;;;;;;;;;;;;;;;3.13;73.99;98611.91;5050938;28;20331;-60
2021/12/27 00:25:15;;;;;;;;;;;;;;;3.15;74.30;98607.50;5050905;28;19920;-61
2021/12/27 00:27:42;;;;;;;;;;;;;;;3.17;74.15;98605.66;5050764;28;19920;-61
2021/12/27 00:30:10;;;;;;;;;;;;;;;3.19;74.45;98600.41;5050714;28;20277;-60
2021/12/27 00:32:37;;;;;;;;;;;;;;;3.21;74.06;98596.81;5050906;28;19924;-59
2021/12/27 00:35:04;;;;;;;;;;;;;;;3.24;74.46;98590.63;5049710;28;19978;-60
2021/12/27 00:37:31;;;;;;;;;;;;;;;3.26;74.41;98588.81;5050884;28;20328;-60
2021/12/27 00:39:57;;;;;;;;;;;;;;;3.28;74.64;98579.16;5050456;28;20371;-59
2021/12/27 00:42:24;;;;;;;;;;;;;;;3.29;74.54;98574.81;5050553;28;20462;-61
2021/12/27 00:44:50;;;;;;;;;;;;;;;3.30;74.44;98568.69;5050837;28;19920;-60
2021/12/27 00:47:17;;;;;;;;;;;;;;;3.30;74.60;98569.56;5050844;28;19920;-60
2021/12/27 00:49:43;;;;;;;;;;;;;;;3.33;74.44;98573.75;5050318;28;20250;-60
2021/12/27 00:52:10;;;;;;;;;;;;;;;3.32;73.96;98562.50;5050544;28;19925;-61
2021/12/27 00:54:36;;;;;;;;;;;;;;;3.33;73.92;98564.19;5050701;28;19920;-59
2021/12/27 00:57:03;;;;;;;;;;;;;;;3.34;74.07;98568.50;5050830;28;19924;-62
2021/12/27 00:59:29;;;;;;;;;;;;;;;3.36;74.03;98558.00;5050751;28;19994;-61
2021/12/27 01:01:56;;;;;;;;;;;;;;;3.37;74.01;98565.72;5050564;28;19975;-60
2021/12/27 01:04:23;;;;;;;;;;;;;;;3.38;74.16;98567.44;5050818;28;19967;-60
2021/12/27 01:06:50;;;;;;;;;;;;;;;3.40;74.15;98562.13;5049305;28;20552;-60
2021/12/27 01:09:30;;;;;;;;;;;;;;;3.41;74.12;98557.78;5050307;28;19921;-61
2021/12/27 01:15:05;;;;;;;;;;;;;;;3.44;74.16;98562.84;5054586;28;20376;-59
2021/12/27 01:17:30;;;;;;;;;;;;;;;3.46;74.10;98569.66;5054130;28;19933;-61
2021/12/27 01:19:57;;;;;;;;;;;;;;;3.48;73.98;98567.81;5054408;28;19920;-59
2021/12/27 01:22:23;;;;;;;;;;;;;;;3.51;74.28;98565.09;5054385;28;19920;-60
2021/12/27 01:24:50;;;;;;;;;;;;;;;3.54;73.97;98571.91;5054423;28;19978;-60
2021/12/27 01:27:16;;;;;;;;;;;;;;;3.56;73.78;98564.88;5054185;28;19947;-61
2021/12/27 01:29:43;;;;;;;;;;;;;;;3.57;73.95;98563.97;5053971;28;20395;-60
2021/12/27 01:32:09;;;;;;;;;;;;;;;3.58;73.82;98576.06;5053991;28;20250;-59
2021/12/27 01:34:35;;;;;;;;;;;;;;;3.60;73.96;98570.78;5054385;28;19925;-59
2021/12/27 01:37:02;;;;;;;;;;;;;;;3.61;73.69;98569.84;5054103;28;19974;-60
2021/12/27 01:39:28;;;;;;;;;;;;;;;3.62;74.12;98567.19;5053994;28;19928;-59
2021/12/27 01:41:55;;;;;;;;;;;;;;;3.64;73.77;98567.97;5053817;28;19921;-60
2021/12/27 01:44:21;;;;;;;;;;;;;;;3.66;73.72;98567.88;5053824;28;19966;-60
2021/12/27 01:46:48;;;;;;;;;;;;;;;3.68;73.79;98562.59;5053869;28;19964;-62
2021/12/27 01:49:14;;;;;;;;;;;;;;;3.69;73.66;98556.47;5053669;28;19920;-59
2021/12/27 01:51:41;;;;;;;;;;;;;;;3.70;73.66;98564.19;5054147;28;19928;-59
2021/12/27 01:54:07;;;;;;;;;;;;;;;3.70;73.79;98559.00;5053488;28;19943;-61
2021/12/27 01:56:34;;;;;;;;;;;;;;;3.71;73.76;98560.72;5052494;28;20372;-59
2021/12/27 01:59:00;;;;;;;;;;;;;;;3.72;73.72;98559.78;5053610;28;19967;-59
2021/12/27 02:01:27;;;;;;;;;;;;;;;3.72;73.62;98557.19;5053843;28;20050;-60
2021/12/27 02:03:54;;;;;;;;;;;;;;;3.72;73.75;98557.19;5053695;28;20066;-58
2021/12/27 02:06:22;;;;;;;;;;;;;;;3.73;73.53;98555.41;5053545;28;19982;-59
2021/12/27 02:08:48;;;;;;;;;;;;;;;3.72;73.84;98551.97;5053766;28;19930;-59
2021/12/27 02:11:17;;;;;;;;;;;;;;;3.71;73.71;98557.25;5053433;28;19974;-59
2021/12/27 02:13:45;;;;;;;;;;;;;;;3.71;73.38;98555.50;5053366;28;19971;-59
2021/12/27 02:16:14;;;;;;;;;;;;;;;3.70;73.52;98553.78;5052543;28;19924;-61
2021/12/27 02:18:40;;;;;;;;;;;;;;;3.71;73.71;98555.50;5052257;28;19924;-60
2021/12/27 02:21:07;;;;;;;;;;;;;;;3.71;73.50;98554.66;5052088;28;19974;-59
2021/12/27 02:23:37;;;;;;;;;;;;;;;3.71;73.86;98558.09;5052910;28;19921;-60
2021/12/27 02:26:03;;;;;;;;;;;;;;;3.72;73.61;98548.53;5052073;28;19933;-59
2021/12/27 02:28:30;;;;;;;;;;;;;;;3.73;73.76;98545.84;5053172;28;19925;-60
2021/12/27 02:30:57;;;;;;;;;;;;;;;3.74;73.79;98539.72;5053371;28;19920;-59
2021/12/27 02:33:23;;;;;;;;;;;;;;;3.74;73.47;98537.13;5053047;28;19928;-60
2021/12/27 02:35:51;;;;;;;;;;;;;;;3.75;73.97;98536.22;5053245;28;19924;-61
2021/12/27 02:38:19;;;;;;;;;;;;;;;3.76;73.68;98532.69;5052938;28;20446;-59
2021/12/27 02:40:46;;;;;;;;;;;;;;;3.80;73.95;98529.91;5052690;28;20611;-59
2021/12/27 02:43:13;;;;;;;;;;;;;;;3.80;73.72;98519.50;5053005;28;19935;-59
2021/12/27 02:45:43;;;;;;;;;;;;;;;3.81;73.90;98511.63;5053138;28;19924;-59
2021/12/27 02:48:10;;;;;;;;;;;;;;;3.82;73.85;98513.34;5053055;28;19978;-60
2021/12/27 02:50:38;;;;;;;;;;;;;;;3.81;73.65;98511.63;5052767;28;19920;-60
2021/12/27 02:53:05;;;;;;;;;;;;;;;3.82;73.94;98517.69;5052682;28;19978;-61
2021/12/27 02:55:32;;;;;;;;;;;;;;;3.80;73.74;98515.16;5052669;28;19924;-61
2021/12/27 02:57:59;;;;;;;;;;;;;;;3.80;73.49;98515.16;5052417;28;19921;-60
2021/12/27 03:01:04;;;;;;;;;;;;;;;3.82;73.85;98515.09;5052422;28;19920;-58
2021/12/27 03:03:31;;;;;;;;;;;;;;;3.82;73.68;98512.47;5052355;28;19924;-60
2021/12/27 03:05:58;;;;;;;;;;;;;;;3.83;73.89;98512.41;5052357;28;20542;-59
2021/12/27 03:08:26;;;;;;;;;;;;;;;3.85;73.89;98515.75;5052580;28;19920;-59
2021/12/27 03:10:57;;;;;;;;;;;;;;;3.87;74.02;98508.72;5052492;28;19998;-60
2021/12/27 03:13:31;;;;;;;;;;;;;;;3.90;73.95;98499.94;5052135;28;19928;-60
2021/12/27 03:15:58;;;;;;;;;;;;;;;3.91;73.87;98496.41;5052544;28;19925;-59
2021/12/27 03:18:26;;;;;;;;;;;;;;;3.91;73.97;98493.78;5051944;28;20288;-59
2021/12/27 03:20:53;;;;;;;;;;;;;;;3.90;73.70;98487.72;5050933;28;20331;-59
2021/12/27 03:23:20;;;;;;;;;;;;;;;3.91;73.77;98486.84;5050801;28;19970;-61
2021/12/27 03:25:46;;;;;;;;;;;;;;;3.91;73.72;98489.44;5052073;28;19986;-59
2021/12/27 03:28:14;;;;;;;;;;;;;;;3.92;73.71;98479.84;5050770;28;20385;-61
2021/12/27 03:30:41;;;;;;;;;;;;;;;3.92;73.87;98482.47;5051757;28;19924;-59
2021/12/27 03:33:08;;;;;;;;;;;;;;;3.91;73.66;98486.84;5051957;28;19968;-60
2021/12/27 03:35:36;;;;;;;;;;;;;;;3.89;73.83;98483.44;5051166;28;19925;-60
2021/12/27 03:38:04;;;;;;;;;;;;;;;3.87;73.87;98484.44;5051724;28;19927;-60
2021/12/27 03:40:31;;;;;;;;;;;;;;;3.86;73.73;98477.56;5050495;28;19927;-59
2021/12/27 03:42:57;;;;;;;;;;;;;;;3.85;73.70;98488.91;5051608;28;19928;-60
2021/12/27 03:45:26;;;;;;;;;;;;;;;3.83;73.78;98478.56;5051532;28;19931;-59
2021/12/27 03:47:53;;;;;;;;;;;;;;;3.82;73.81;98476.88;5051411;28;20351;-61
2021/12/27 03:50:20;;;;;;;;;;;;;;;3.82;73.63;98476.03;5051147;28;20450;-60
2021/12/27 03:52:46;;;;;;;;;;;;;;;3.81;73.73;98484.78;5051412;28;19924;-59
2021/12/27 03:55:13;;;;;;;;;;;;;;;3.81;73.71;98484.78;5051634;28;19928;-60
2021/12/27 03:57:42;;;;;;;;;;;;;;;3.82;73.90;98489.06;5051437;28;19990;-61
2021/12/27 04:02:52;;;;;;;;;;;;;;;3.85;73.74;98484.53;5051447;28;20331;-59
2021/12/27 04:05:19;;;;;;;;;;;;;;;3.88;74.01;98488.72;5050060;28;19931;-60
2021/12/27 04:07:49;;;;;;;;;;;;;;;3.92;73.86;98487.66;5051446;28;20347;-61
2021/12/27 04:10:15;;;;;;;;;;;;;;;3.95;74.08;98482.31;5051038;28;19969;-60
2021/12/27 04:12:42;;;;;;;;;;;;;;;3.98;74.07;98476.97;5051236;28;20019;-62
2021/12/27 04:15:09;;;;;;;;;;;;;;;4.01;74.09;98471.56;5051162;28;19934;-60
2021/12/27 04:17:36;;;;;;;;;;;;;;;4.03;73.79;98461.94;5051012;28;19928;-59
2021/12/27 04:20:03;;;;;;;;;;;;;;;4.05;74.09;98459.25;5050924;28;19924;-59
2021/12/27 04:22:33;;;;;;;;;;;;;;;4.07;73.98;98453.97;5049764;28;19921;-61
2021/12/27 04:25:13;;;;;;;;;;;;;;;4.08;73.95;98459.09;5050825;28;19921;-61
2021/12/27 04:27:40;;;;;;;;;;;;;;;4.08;73.98;98460.84;5051188;28;20388;-59
2021/12/27 04:30:06;;;;;;;;;;;;;;;4.09;73.91;98463.38;5050864;28;19924;-62
2021/12/27 04:32:33;;;;;;;;;;;;;;;4.11;73.80;98460.72;5050654;28;20404;-60
2021/12/27 04:34:59;;;;;;;;;;;;;;;4.12;73.90;98458.00;5050981;28;19920;-59
2021/12/27 04:37:29;;;;;;;;;;;;;;;4.14;73.96;98455.31;5050840;28;19971;-60
2021/12/27 04:39:55;;;;;;;;;;;;;;;4.14;73.98;98453.56;5049522;28;19986;-62
2021/12/27 04:42:22;;;;;;;;;;;;;;;4.16;74.05;98450.91;5050890;28;19925;-60
2021/12/27 04:44:49;;;;;;;;;;;;;;;4.17;73.91;98452.56;5050696;28;19947;-60
2021/12/27 04:47:16;;;;;;;;;;;;;;;4.16;73.97;98456.94;5050631;28;19932;-60
2021/12/27 04:49:43;;;;;;;;;;;;;;;4.16;73.98;98453.50;5050604;28;19925;-59
2021/12/27 04:52:10;;;;;;;;;;;;;;;4.16;73.87;98456.09;5050538;28;20336;-59
2021/12/27 04:54:37;;;;;;;;;;;;;;;4.17;73.77;98455.19;5050893;28;19925;-60
2021/12/27 04:57:03;;;;;;;;;;;;;;;4.18;73.88;98456.84;5049615;28;19929;-60
2021/12/27 04:59:30;;;;;;;;;;;;;;;4.19;73.82;98458.56;5050360;28;19925;-59
2021/12/27 05:01:57;;;;;;;;;;;;;;;4.21;73.99;98456.69;5050489;28;19924;-59
2021/12/27 05:04:24;;;;;;;;;;;;;;;4.24;74.04;98448.75;5050424;28;19924;-59
2021/12/27 05:06:51;;;;;;;;;;;;;;;4.28;74.29;98449.41;5050430;28;19920;-59
2021/12/27 05:09:17;;;;;;;;;;;;;;;4.31;74.12;98454.47;5050741;28;19982;-61
2021/12/27 05:11:43;;;;;;;;;;;;;;;4.34;74.25;98453.47;5050762;28;19986;-60
2021/12/27 05:14:11;;;;;;;;;;;;;;;4.37;73.97;98448.91;5050411;28;19921;-61
2021/12/27 05:16:38;;;;;;;;;;;;;;;4.39;74.06;98436.66;5050423;28;19921;-61
2021/12/27 05:19:05;;;;;;;;;;;;;;;4.42;74.25;98436.47;5050419;28;19935;-58
2021/12/27 05:21:31;;;;;;;;;;;;;;;4.44;74.03;98431.19;5050333;28;19920;-61
2021/12/27 05:23:58;;;;;;;;;;;;;;;4.47;74.05;98433.66;5050449;28;19971;-60
2021/12/27 05:26:24;;;;;;;;;;;;;;;4.48;73.94;98434.50;5050485;28;20270;-61
2021/12/27 05:28:51;;;;;;;;;;;;;;;4.49;73.98;98423.97;5050570;28;19975;-59
2021/12/27 05:31:17;;;;;;;;;;;;;;;4.50;74.14;98415.25;5049967;28;20496;-61
2021/12/27 05:33:44;;;;;;;;;;;;;;;4.51;73.99;98413.47;5050155;28;19974;-59
2021/12/27 05:36:12;;;;;;;;;;;;;;;4.50;73.86;98410.03;5050404;28;19924;-60
2021/12/27 05:38:39;;;;;;;;;;;;;;;4.50;73.89;98399.63;5049204;28;19975;-60
2021/12/27 05:41:06;;;;;;;;;;;;;;;4.50;73.67;98399.63;5050123;28;19983;-61
2021/12/27 05:43:32;;;;;;;;;;;;;;;4.49;73.69;98400.53;5050249;28;19946;-60
2021/12/27 05:45:59;;;;;;;;;;;;;;;4.48;73.77;98401.44;5050130;28;19928;-61
2021/12/27 05:48:26;;;;;;;;;;;;;;;4.46;73.58;98397.25;5050110;28;19925;-60
2021/12/27 05:50:53;;;;;;;;;;;;;;;4.43;73.64;98395.66;5049999;28;20487;-59
2021/12/27 05:53:20;;;;;;;;;;;;;;;4.43;73.82;98404.31;5050028;28;19932;-59
2021/12/27 05:55:47;;;;;;;;;;;;;;;4.45;73.88;98400.78;5048839;28;20293;-60
2021/12/27 05:58:13;;;;;;;;;;;;;;;4.46;73.92;98403.31;5051514;28;19967;-60
2021/12/27 06:00:40;;;;;;;;;;;;;;;4.49;74.05;98403.13;5053562;28;19974;-59
2021/12/27 06:03:07;;;;;;;;;;;;;;;4.52;74.23;98402.97;5053819;28;20322;-61
2021/12/27 06:05:33;;;;;;;;;;;;;;;4.55;74.08;98396.75;5053722;28;19921;-59
2021/12/27 06:08:01;;;;;;;;;;;;;;;4.56;74.01;98393.22;5053782;28;19932;-59
2021/12/27 06:10:27;;;;;;;;;;;;;;;4.57;73.97;98387.91;5053290;28;19949;-59
2021/12/27 06:12:54;;;;;;;;;;;;;;;4.60;74.00;98393.91;5053384;28;20020;-58
2021/12/27 06:15:20;;;;;;;;;;;;;;;4.61;73.95;98387.75;5053238;28;19924;-59
2021/12/27 06:17:47;;;;;;;;;;;;;;;4.63;74.06;98383.31;5053519;28;19924;-61
2021/12/27 06:20:15;;;;;;;;;;;;;;;4.63;73.99;98391.97;5053250;28;19947;-60
2021/12/27 06:22:53;;;;;;;;;;;;;;;4.64;74.05;98385.81;5052018;28;19948;-59
2021/12/27 06:25:19;;;;;;;;;;;;;;;4.66;73.99;98389.19;5052184;28;19935;-59
2021/12/27 06:27:46;;;;;;;;;;;;;;;4.69;74.08;98394.25;5053039;28;19978;-61
2021/12/27 06:30:13;;;;;;;;;;;;;;;4.72;74.07;98389.78;5053029;28;19928;-58
2021/12/27 06:32:40;;;;;;;;;;;;;;;4.75;74.21;98394.84;5053136;28;19924;-58
2021/12/27 06:35:08;;;;;;;;;;;;;;;4.79;74.21;98386.75;5052868;28;19970;-61
2021/12/27 06:37:34;;;;;;;;;;;;;;;4.82;74.19;98393.53;5053045;28;19947;-59
2021/12/27 06:40:01;;;;;;;;;;;;;;;4.85;74.09;98385.56;5051461;28;19924;-59
2021/12/27 06:42:28;;;;;;;;;;;;;;;4.87;74.23;98383.72;5052917;28;19928;-59
2021/12/27 06:44:54;;;;;;;;;;;;;;;4.90;74.07;98387.94;5052531;28;19925;-59
2021/12/27 06:47:22;;;;;;;;;;;;;;;4.90;74.23;98393.13;5052834;28;19921;-60
2021/12/27 06:49:49;;;;;;;;;;;;;;;4.91;74.10;98387.00;5052781;28;19967;-58
2021/12/27 06:52:16;;;;;;;;;;;;;;;4.90;73.94;98390.53;5052837;28;19924;-58
2021/12/27 06:54:42;;;;;;;;;;;;;;;4.89;73.96;98394.91;5052823;28;19921;-59
2021/12/27 06:57:09;;;;;;;;;;;;;;;4.90;73.87;98390.53;5052698;28;19921;-58
2021/12/27 06:59:36;;;;;;;;;;;;;;;4.89;73.90;98388.81;5052694;28;19929;-61
2021/12/27 07:02:02;;;;;;;;;;;;;;;4.89;73.48;98388.81;5052472;28;19925;-59
2021/12/27 07:04:31;;;;;;;;;;;;;;;4.90;73.77;98395.75;5052656;28;19920;-58
2021/12/27 07:06:57;;;;;;;;;;;;;;;4.89;73.76;98407.94;5052351;28;19975;-58
2021/12/27 07:09:24;;;;;;;;;;;;;;;4.89;73.97;98405.31;5051141;28;20313;-63
2021/12/27 07:11:50;;;;;;;;;;;;;;;4.91;73.97;98407.84;5051952;28;19979;-61
2021/12/27 07:14:17;;;;;;;;;;;;;;;4.93;74.12;98414.66;5052515;28;19920;-59
2021/12/27 07:16:43;;;;;;;;;;;;;;;4.96;74.11;98408.44;5052315;28;19966;-58
2021/12/27 07:19:10;;;;;;;;;;;;;;;4.98;74.00;98409.19;5052177;28;20312;-59
2021/12/27 07:21:36;;;;;;;;;;;;;;;5.01;74.27;98403.78;5052128;28;19974;-60
2021/12/27 07:24:03;;;;;;;;;;;;;;;5.04;74.32;98393.19;5051458;28;19920;-58
2021/12/27 07:26:29;;;;;;;;;;;;;;;5.06;74.11;98390.50;5052025;28;19928;-59
2021/12/27 07:28:56;;;;;;;;;;;;;;;5.09;74.05;98385.13;5051704;28;20473;-58
2021/12/27 07:31:22;;;;;;;;;;;;;;;5.09;74.23;98391.16;5051592;28;19925;-61
2021/12/27 07:33:49;;;;;;;;;;;;;;;5.11;74.02;98377.19;5051882;28;20023;-60
2021/12/27 07:36:16;;;;;;;;;;;;;;;5.11;74.07;98378.03;5051307;28;19929;-59
2021/12/27 07:38:42;;;;;;;;;;;;;;;5.12;74.07;98384.09;5051187;28;19951;-61
2021/12/27 07:41:09;;;;;;;;;;;;;;;5.09;73.88;98367.69;5049584;28;19951;-59
2021/12/27 07:43:35;;;;;;;;;;;;;;;5.08;73.95;98379.06;5051126;28;19928;-60
2021/12/27 07:46:02;;;;;;;;;;;;;;;5.08;74.01;98379.06;5051761;28;20266;-58
2021/12/27 07:48:29;;;;;;;;;;;;;;;5.09;73.98;98379.91;5051160;28;20003;-61
2021/12/27 07:50:55;;;;;;;;;;;;;;;5.08;74.03;98379.06;5050517;28;19920;-59
2021/12/27 07:53:22;;;;;;;;;;;;;;;5.09;74.26;98387.72;5050550;28;19924;-60
2021/12/27 07:55:48;;;;;;;;;;;;;;;5.11;74.25;98374.56;5051642;28;20437;-58
2021/12/27 07:58:15;;;;;;;;;;;;;;;5.13;74.22;98384.03;5051416;28;19974;-59
2021/12/27 08:00:41;;;;;;;;;;;;;;;5.16;74.35;98381.22;5051323;28;19921;-59
2021/12/27 08:03:08;;;;;;;;;;;;;;;5.19;74.26;98391.50;5050491;28;20273;-60
2021/12/27 08:05:34;;;;;;;;;;;;;;;5.24;74.45;98390.38;5051478;28;20332;-59
2021/12/27 08:08:01;;;;;;;;;;;;;;;5.27;74.37;98390.22;5049523;28;19924;-58
2021/12/27 08:10:28;;;;;;;;;;;;;;;5.30;74.49;98383.06;5050328;28;20365;-59
2021/12/27 08:12:55;;;;;;;;;;;;;;;5.33;74.52;98376.81;5051009;28;19947;-59
2021/12/27 08:15:23;;;;;;;;;;;;;;;5.37;74.16;98380.06;5050178;28;19921;-59
2021/12/27 08:17:49;;;;;;;;;;;;;;;5.38;74.09;98380.00;5051321;28;19924;-60
2021/12/27 08:20:16;;;;;;;;;;;;;;;5.39;74.07;98380.84;5050649;28;19924;-59
2021/12/27 08:22:42;;;;;;;;;;;;;;;5.41;74.28;98381.56;5050942;28;19962;-58
2021/12/27 08:25:09;;;;;;;;;;;;;;;5.43;74.26;98385.81;5051381;28;19921;-59
2021/12/27 08:27:37;;;;;;;;;;;;;;;5.46;74.53;98376.97;5051209;28;19925;-59
2021/12/27 08:30:05;;;;;;;;;;;;;;;5.48;74.33;98380.31;5050793;28;20562;-59
2021/12/27 08:32:32;;;;;;;;;;;;;;;5.51;74.26;98385.34;5051140;28;19924;-59
2021/12/27 08:35:01;;;;;;;;;;;;;;;5.54;74.36;98379.09;5050932;28;19925;-59
2021/12/27 08:37:30;;;;;;;;;;;;;;;5.57;74.52;98386.78;5051014;28;20285;-58
2021/12/27 08:39:58;;;;;;;;;;;;;;;5.60;74.33;98386.56;5049364;28;19920;-58
2021/12/27 08:42:27;;;;;;;;;;;;;;;5.64;74.54;98385.47;5050739;28;20003;-59
2021/12/27 08:44:53;;;;;;;;;;;;;;;5.66;74.56;98388.84;5050883;28;19920;-57
2021/12/27 08:47:20;;;;;;;;;;;;;;;5.69;74.59;98386.03;5050604;28;19970;-61
2021/12/27 08:49:47;;;;;;;;;;;;;;;5.72;74.88;98387.63;5050426;28;19935;-60
2021/12/27 08:52:30;;;;;;;;;;;;;;;5.76;74.54;98391.75;5050808;28;19925;-59
2021/12/27 08:54:57;;;;;;;;;;;;;;;5.79;74.42;98386.31;5050591;28;19929;-62
2021/12/27 08:57:25;;;;;;;;;;;;;;;5.83;74.55;98387.00;5050748;28;19920;-58
2021/12/27 08:59:51;;;;;;;;;;;;;;;5.86;74.61;98392.03;5050745;28;19932;-59
2021/12/27 09:02:18;;;;;;;;;;;;;;;5.89;74.38;98385.78;5050302;28;19921;-59
2021/12/27 09:04:44;;;;;;;;;;;;;;;5.94;74.75;98388.97;5049517;28;20019;-61
2021/12/27 09:07:12;;;;;;;;;;;;;;;5.95;74.44;98381.03;5050594;28;19925;-59
2021/12/27 09:09:39;;;;;;;;;;;;;;;6.00;74.72;98380.75;5050619;28;19921;-61
2021/12/27 09:12:06;;;;;;;;;;;;;;;6.03;74.51;98380.59;5050493;28;19970;-59
2021/12/27 09:14:33;;;;;;;;;;;;;;;6.06;74.73;98374.34;5049325;28;19947;-59
2021/12/27 09:16:59;;;;;;;;;;;;;;;6.10;74.79;98376.66;5050869;28;19990;-58
2021/12/27 09:19:26;;;;;;;;;;;;;;;6.14;74.54;98387.78;5050379;28;19940;-59
2021/12/27 09:21:52;;;;;;;;;;;;;;;6.18;74.63;98380.59;5050602;28;19995;-59
2021/12/27 09:24:19;;;;;;;;;;;;;;;6.21;74.57;98369.97;5050695;28;19974;-59
2021/12/27 09:26:46;;;;;;;;;;;;;;;6.24;74.57;98372.38;5050434;28;19924;-58
2021/12/27 09:29:12;;;;;;;;;;;;;;;6.28;74.75;98366.03;5050213;28;19924;-59
2021/12/27 09:31:39;;;;;;;;;;;;;;;6.32;74.66;98364.06;5050601;28;19986;-60
2021/12/27 09:34:05;;;;;;;;;;;;;;;6.36;74.80;98362.97;5053181;28;20011;-60
2021/12/27 09:36:32;;;;;;;;;;;;;;;6.41;74.68;98362.66;5054307;28;19924;-59
2021/12/27 09:38:58;;;;;;;;;;;;;;;6.45;74.60;98362.38;5054177;28;19975;-58
2021/12/27 09:41:25;;;;;;;;;;;;;;;6.50;74.83;98357.69;5054004;28;19974;-62
2021/12/27 09:43:53;;;;;;;;;;;;;;;6.55;74.97;98357.41;5053876;28;20431;-59
2021/12/27 09:46:19;;;;;;;;;;;;;;;6.60;74.97;98351.88;5052681;28;19970;-65
2021/12/27 09:48:47;;;;;;;;;;;;;;;6.63;74.70;98349.94;5054057;28;19927;-59
2021/12/27 09:51:13;;;;;;;;;;;;;;;6.67;74.69;98360.16;5053505;28;19924;-58
2021/12/27 09:53:40;;;;;;;;;;;;;;;6.69;74.50;98358.31;5053662;28;19928;-59
2021/12/27 09:56:07;;;;;;;;;;;;;;;6.68;74.35;98365.31;5053582;28;19990;-59
2021/12/27 09:58:34;;;;;;;;;;;;;;;6.67;73.84;98365.41;5053548;28;20545;-60
2021/12/27 10:01:03;;;;;;;;;;;;;;;6.63;73.88;98362.16;5053618;28;19924;-59
2021/12/27 10:03:30;;;;;;;;;;;;;;;6.59;73.77;98355.44;5053522;28;20042;-62
2021/12/27 10:06:09;;;;;;;;;;;;;;;6.55;73.77;98346.97;5053613;28;19925;-59
2021/12/27 10:08:36;;;;;;;;;;;;;;;6.52;73.50;98347.16;5053246;28;19921;-59
2021/12/27 10:11:02;;;;;;;;;;;;;;;6.49;73.53;98339.47;5053149;28;20331;-59
2021/12/27 10:13:29;;;;;;;;;;;;;;;6.46;73.73;98343.13;5053612;28;20439;-60
2021/12/27 10:15:56;;;;;;;;;;;;;;;6.45;73.73;98338.84;5053567;28;19998;-58
2021/12/27 10:18:22;;;;;;;;;;;;;;;6.47;73.97;98351.81;5053371;28;19928;-61
2021/12/27 10:20:49;;;;;;;;;;;;;;;6.50;74.07;98338.53;5053091;28;19970;-59
2021/12/27 10:23:18;;;;;;;;;;;;;;;6.54;74.30;98337.41;5053157;28;19967;-59
2021/12/27 10:25:48;;;;;;;;;;;;;;;6.59;74.36;98338.00;5053199;28;19925;-59
2021/12/27 10:28:14;;;;;;;;;;;;;;;6.64;74.58;98329.84;5053015;28;19966;-62
2021/12/27 10:30:43;;;;;;;;;;;;;;;6.69;74.53;98330.38;5052886;28;19929;-61
2021/12/27 10:33:14;;;;;;;;;;;;;;;6.75;74.58;98323.91;5051803;28;20339;-60
2021/12/27 10:35:45;;;;;;;;;;;;;;;6.81;74.58;98322.69;5052931;28;19955;-61
2021/12/27 10:38:16;;;;;;;;;;;;;;;6.86;74.57;98313.59;5051809;28;19924;-59
2021/12/27 10:40:57;;;;;;;;;;;;;;;6.91;74.72;98314.13;5052859;28;19920;-60
2021/12/27 10:43:41;;;;;;;;;;;;;;;6.98;74.58;98304.09;5052560;28;19920;-59
2021/12/27 10:46:10;;;;;;;;;;;;;;;7.02;74.97;98300.34;5052833;28;19979;-60
2021/12/27 10:48:38;;;;;;;;;;;;;;;7.07;74.72;98300.06;5053071;28;20361;-59
2021/12/27 10:51:05;;;;;;;;;;;;;;;7.13;74.79;98307.50;5052733;28;20333;-62
2021/12/27 10:53:51;;;;;;;;;;;;;;;7.17;74.51;98308.13;5053088;28;19925;-60
2021/12/27 10:56:18;;;;;;;;;;;;;;;7.22;74.82;98313.06;5052642;28;19985;-59
2021/12/27 10:58:46;;;;;;;;;;;;;;;7.25;74.80;98305.00;5052379;28;20439;-60
2021/12/27 11:01:18;;;;;;;;;;;;;;;7.28;74.58;98302.16;5052608;28;19920;-59
2021/12/27 11:03:45;;;;;;;;;;;;;;;7.32;74.58;98297.59;5052748;28;19964;-59
2021/12/27 11:06:14;;;;;;;;;;;;;;;7.35;74.67;98292.97;5052453;28;19926;-60
2021/12/27 11:08:45;;;;;;;;;;;;;;;7.38;74.27;98291.94;5052323;28;20278;-60
2021/12/27 11:11:12;;;;;;;;;;;;;;;7.41;74.63;98291.72;5051744;28;19920;-60
2021/12/27 11:13:39;;;;;;;;;;;;;;;7.43;74.35;98303.78;5050969;28;19920;-62
2021/12/27 11:16:05;;;;;;;;;;;;;;;7.45;74.51;98293.19;5052441;28;19967;-62
2021/12/27 11:18:32;;;;;;;;;;;;;;;7.48;74.39;98305.25;5052342;28;19928;-61
2021/12/27 11:21:00;;;;;;;;;;;;;;;7.50;74.44;98295.47;5051977;28;20353;-62
2021/12/27 11:23:27;;;;;;;;;;;;;;;7.52;74.39;98286.59;5050754;28;19925;-61
2021/12/27 11:26:06;;;;;;;;;;;;;;;7.55;74.18;98293.38;5052190;28;19925;-61
2021/12/27 11:28:34;;;;;;;;;;;;;;;7.57;74.15;98288.91;5051904;28;19974;-61
2021/12/27 11:31:05;;;;;;;;;;;;;;;7.59;74.47;98297.47;5051987;28;19925;-61
2021/12/27 11:33:51;;;;;;;;;;;;;;;7.61;74.45;98285.13;5051803;28;20396;-62
2021/12/27 11:36:17;;;;;;;;;;;;;;;7.63;74.46;98283.22;5051699;28;19932;-61
2021/12/27 11:38:44;;;;;;;;;;;;;;;7.66;74.20;98283.03;5051945;28;19929;-63
2021/12/27 11:41:31;;;;;;;;;;;;;;;7.69;74.26;98279.34;5051852;28;19924;-62
2021/12/27 11:44:04;;;;;;;;;;;;;;;7.72;74.30;98280.91;5051801;28;19990;-63
2021/12/27 11:46:51;;;;;;;;;;;;;;;7.74;74.25;98279.06;5051708;28;19974;-62
2021/12/27 11:49:35;;;;;;;;;;;;;;;7.76;74.20;98277.16;5051555;28;20406;-61
2021/12/27 11:52:13;;;;;;;;;;;;;;;7.79;74.56;98272.56;5050350;28;19925;-62
2021/12/27 11:54:47;;;;;;;;;;;;;;;7.83;74.45;98275.78;5051455;28;19990;-63
2021/12/27 11:57:34;;;;;;;;;;;;;;;7.87;74.37;98274.63;5050919;28;19928;-61
2021/12/27 12:00:00;;;;;;;;;;;;;;;7.91;74.44;98270.84;5051235;28;19924;-63
2021/12/27 12:02:29;;;;;;;;;;;;;;;7.95;74.56;98269.69;5051447;28;19921;-62
2021/12/27 12:04:57;;;;;;;;;;;;;;;7.98;74.28;98278.28;5051462;28;20012;-62
2021/12/27 12:07:33;;;;;;;;;;;;;;;8.01;74.44;98272.81;5051274;28;19921;-61
2021/12/27 12:10:00;;;;;;;;;;;;;;;8.02;74.42;98270.09;5050947;28;20340;-62
2021/12/27 12:12:28;;;;;;;;;;;;;;;8.05;74.41;98276.91;5051374;28;19967;-64
2021/12/27 12:15:06;;;;;;;;;;;;;;;8.08;74.50;98255.72;5051278;28;19920;-62
2021/12/27 12:17:39;;;;;;;;;;;;;;;8.12;74.57;98261.56;5049984;28;19924;-62
2021/12/27 12:20:24;;;;;;;;;;;;;;;8.15;74.37;98258.75;5050712;28;19928;-63
2021/12/27 12:22:59;;;;;;;;;;;;;;;8.21;74.68;98240.78;5051204;28;19928;-61
2021/12/27 12:25:26;;;;;;;;;;;;;;;8.31;75.30;98235.72;5049917;28;20030;-61
2021/12/27 12:27:53;;;;;;;;;;;;;;;8.46;75.77;98232.94;5051051;28;20376;-62
2021/12/27 12:30:20;;;;;;;;;;;;;;;8.62;76.06;98232.69;5050743;28;20335;-61
2021/12/27 12:32:57;;;;;;;;;;;;;;;8.78;76.08;98223.69;5049516;28;19925;-62
2021/12/27 12:35:54;;;;;;;;;;;;;;;8.95;76.20;98232.91;5050933;28;19924;-62
2021/12/27 12:38:25;;;;;;;;;;;;;;;9.16;76.69;98229.63;5042328;28;19925;-62
2021/12/27 12:41:11;;;;;;;;;;;;;;;9.32;76.17;98219.63;5050609;28;20369;-62
2021/12/27 12:43:45;;;;;;;;;;;;;;;9.48;76.23;98219.28;5050993;28;20332;-62
2021/12/27 12:46:25;;;;;;;;;;;;;;;9.68;76.42;98210.81;5050921;28;19967;-62
2021/12/27 12:49:02;;;;;;;;;;;;;;;9.93;76.85;98209.69;5050536;28;19940;-62
2021/12/27 12:51:37;;;;;;;;;;;;;;;10.23;77.36;98205.56;5050719;28;19921;-61
2021/12/27 12:54:07;;;;;;;;;;;;;;;10.57;77.77;98203.81;5050999;28;19929;-62
2021/12/27 12:56:34;;;;;;;;;;;;;;;10.87;77.44;98195.16;5050702;28;19925;-62
2021/12/27 12:59:00;;;;;;;;;;;;;;;11.15;77.26;98200.75;5050665;28;19978;-62
2021/12/27 13:01:27;;;;;;;;;;;;;;;11.37;76.81;98193.66;5050398;28;20281;-62
2021/12/27 13:03:57;;;;;;;;;;;;;;;11.57;76.27;98199.84;5050434;28;19975;-63
2021/12/27 13:06:23;;;;;;;;;;;;;;;11.69;75.46;98205.00;5049355;28;20399;-65
2021/12/27 13:08:51;;;;;;;;;;;;;;;11.72;74.39;98199.47;5054593;28;20324;-62